KMER/MER METAR and TAF weather

Enter ICAO airport designator
Station Type Date Time Source
KMER METAR 2021/09/27 07:55 UTC NOAA

KMER 270755Z AUTO 33007KT 10SM CLR 15/12 A3000 RMK AO1


Station Type Date Time Source
KMER Decoded METAR 2021/09/27 07:55 UTC NOAA

Merced / Castle Air Force Base, CA, United States (KMER) 37-22N 120-34W 60M
Sep 27, 2021 - 03:55 AM EDT / 2021.09.27 0755 UTC
Wind: from the NNW (330 degrees) at 8 MPH (7 KT):0
Visibility: 10 mile(s):0
Sky conditions: clear
Temperature: 59 F (15 C)
Dew Point: 53 F (12 C)
Relative Humidity: 82%
Pressure (altimeter): 30 in. Hg (1015 hPa)
ob: KMER 270755Z AUTO 33007KT 10SM CLR 15/12 A3000 RMK AO1
cycle: 8

Station Type Date Time Source
KMER TAF 2021/09/27 06:47 UTC NOAA

TAF KMER 270535Z 2706/2806 33006KT P6SM SKC
FM280000 32008KT P6SM BKN250
FM280200 33015G20KT P6SM SCT050

Example: see airport list